createdAt,value
2019-04-11T00:01:39.091Z,77.68
2019-04-11T00:04:40.048Z,77.99
2019-04-11T00:07:44.652Z,78.14
2019-04-11T00:10:49.196Z,78.56
2019-04-11T00:13:53.619Z,78.63
2019-04-11T00:16:57.641Z,78.67
2019-04-11T00:20:02.220Z,78.68
2019-04-11T00:23:06.204Z,78.67
2019-04-11T00:26:10.011Z,78.44
2019-04-11T00:29:14.369Z,78.36
2019-04-11T00:32:19.163Z,78.41
2019-04-11T00:35:23.828Z,78.33
2019-04-11T00:38:27.788Z,78.16
2019-04-11T00:41:32.359Z,78.06
2019-04-11T00:44:36.452Z,77.82
2019-04-11T00:47:41.481Z,77.91
2019-04-11T00:50:45.534Z,77.95
2019-04-11T00:53:49.992Z,78.03
2019-04-11T00:56:54.700Z,78.02
2019-04-11T00:59:58.625Z,78.32
2019-04-11T01:03:03.897Z,78.40
2019-04-11T01:06:08.115Z,78.43
2019-04-11T01:09:12.514Z,78.44
2019-04-11T01:12:16.596Z,78.43
2019-04-11T01:15:22.054Z,78.62
2019-04-11T01:18:25.870Z,78.48
2019-04-11T01:21:30.632Z,78.60
2019-04-11T01:24:35.550Z,78.89
2019-04-11T01:27:40.928Z,78.94
2019-04-11T01:31:01.067Z,79.36
2019-04-11T01:34:06.383Z,79.54
2019-04-11T01:37:11.397Z,79.62
2019-04-11T01:40:15.817Z,79.36
2019-04-11T01:43:19.914Z,79.06
2019-04-11T01:46:24.383Z,79.07
2019-04-11T01:49:28.409Z,79.32
2019-04-11T01:52:32.348Z,79.75
2019-04-11T01:55:36.726Z,79.71
2019-04-11T01:58:40.714Z,79.84
2019-04-11T02:02:03.671Z,80.00
2019-04-11T02:05:16.720Z,79.83
2019-04-11T02:08:20.698Z,79.83
2019-04-11T02:11:25.614Z,80.02
2019-04-11T02:14:29.579Z,80.15
2019-04-11T02:17:33.600Z,80.11
2019-04-11T02:20:38.775Z,80.11
2019-04-11T02:23:55.526Z,80.11
2019-04-11T02:27:19.088Z,80.27
2019-04-11T02:30:23.094Z,80.01
2019-04-11T02:33:27.151Z,80.36
2019-04-11T02:36:32.179Z,80.35
2019-04-11T02:39:36.672Z,80.59
2019-04-11T02:42:41.157Z,80.48
2019-04-11T02:45:58.072Z,80.39
2019-04-11T02:48:52.221Z,80.50
2019-04-11T02:51:56.355Z,80.69
2019-04-11T02:55:00.854Z,81.02
2019-04-11T02:58:06.208Z,81.33
2019-04-11T03:01:12.731Z,81.39
2019-04-11T03:04:16.757Z,81.35
2019-04-11T03:07:22.577Z,80.97
2019-04-11T03:10:27.092Z,81.42
2019-04-11T03:13:33.280Z,81.66
2019-04-11T03:16:49.301Z,81.87
2019-04-11T03:19:54.038Z,81.94
2019-04-11T03:22:56.224Z,81.95
2019-04-11T03:25:54.539Z,82.24
2019-04-11T03:28:59.757Z,81.83
2019-04-11T03:32:37.094Z,81.93
2019-04-11T03:36:00.022Z,81.95
2019-04-11T03:38:38.473Z,82.03
2019-04-11T03:41:38.470Z,81.93
2019-04-11T03:44:33.554Z,82.02
2019-04-11T03:47:44.856Z,82.63
2019-04-11T03:50:39.322Z,83.03
2019-04-11T03:53:44.974Z,82.85
2019-04-11T03:56:50.792Z,82.95
2019-04-11T03:59:56.451Z,82.86
2019-04-11T04:03:01.630Z,82.79
2019-04-11T04:06:07.261Z,83.02
2019-04-11T04:09:13.079Z,83.17
2019-04-11T04:12:18.675Z,83.22
2019-04-11T04:15:55.793Z,83.59
2019-04-11T04:19:15.268Z,83.41
2019-04-11T04:22:24.740Z,83.66
2019-04-11T04:25:29.037Z,83.34
2019-04-11T04:28:33.822Z,83.89
2019-04-11T04:31:40.113Z,84.02
2019-04-11T04:34:46.076Z,84.02
2019-04-11T04:37:51.691Z,84.12
2019-04-11T04:41:13.468Z,84.21
2019-04-11T04:44:06.437Z,84.38
2019-04-11T04:47:21.094Z,84.49
2019-04-11T04:50:16.025Z,84.55
2019-04-11T04:53:20.511Z,84.61
2019-04-11T04:56:29.542Z,84.66
2019-04-11T04:59:32.022Z,84.48
2019-04-11T05:02:37.416Z,84.60
2019-04-11T05:05:42.479Z,84.54
2019-04-11T05:08:47.225Z,84.66
2019-04-11T05:11:52.861Z,84.65
2019-04-11T05:14:56.764Z,84.87
2019-04-11T05:18:01.962Z,85.06
2019-04-11T05:21:06.041Z,85.15
2019-04-11T05:24:10.347Z,85.10
2019-04-11T05:27:14.649Z,85.29
2019-04-11T05:30:18.833Z,85.42
2019-04-11T05:33:23.208Z,85.45
2019-04-11T05:36:28.225Z,85.50
2019-04-11T05:39:32.162Z,85.62
2019-04-11T05:42:37.635Z,85.67
2019-04-11T05:45:42.258Z,85.68
2019-04-11T05:49:00.455Z,85.71
2019-04-11T05:52:08.161Z,85.70
2019-04-11T05:55:13.773Z,85.86
2019-04-11T05:58:20.896Z,86.02
2019-04-11T06:01:30.733Z,86.23
2019-04-11T06:04:40.581Z,86.40
2019-04-11T06:07:57.882Z,86.24
2019-04-11T06:11:24.062Z,86.34
2019-04-11T06:14:58.406Z,86.45
2019-04-11T06:18:07.009Z,86.43
2019-04-11T06:21:26.172Z,86.75
2019-04-11T06:25:00.696Z,86.80
2019-04-11T06:28:24.343Z,87.05
2019-04-11T06:31:47.849Z,87.08
2019-04-11T06:34:57.782Z,87.29
2019-04-11T06:38:20.546Z,87.42
2019-04-11T06:41:40.930Z,87.10
2019-04-11T06:45:11.050Z,86.80
2019-04-11T06:48:26.770Z,87.11
2019-04-11T06:51:35.727Z,85.59
2019-04-11T06:54:52.438Z,85.42
2019-04-11T06:58:21.585Z,86.00
2019-04-11T07:01:27.988Z,86.97
2019-04-11T07:04:35.763Z,85.55
2019-04-11T07:07:42.919Z,85.21
2019-04-11T07:10:51.373Z,82.91
2019-04-11T07:14:12.416Z,83.29
2019-04-11T07:17:34.287Z,84.31
2019-04-11T07:20:49.946Z,85.09
2019-04-11T07:24:11.905Z,85.13
2019-04-11T07:27:16.263Z,84.41
2019-04-11T07:30:39.664Z,84.92
2019-04-11T07:34:02.473Z,85.16
2019-04-11T07:37:23.993Z,84.37
2019-04-11T07:40:45.637Z,83.66
2019-04-11T07:43:50.020Z,82.82
2019-04-11T07:47:17.097Z,82.35
2019-04-11T07:50:15.613Z,82.70
2019-04-11T07:53:19.721Z,82.57
2019-04-11T07:56:41.931Z,82.15
2019-04-11T08:00:14.944Z,82.03
2019-04-11T08:03:25.618Z,80.66
2019-04-11T08:06:47.952Z,80.52
2019-04-11T08:09:57.696Z,80.12
2019-04-11T08:13:05.917Z,80.53
2019-04-11T08:16:28.848Z,79.40
2019-04-11T08:19:55.321Z,79.02
2019-04-11T08:23:05.593Z,77.21
2019-04-11T08:26:44.371Z,76.50
2019-04-11T08:29:50.514Z,77.00
2019-04-11T08:33:00.303Z,75.67
2019-04-11T08:36:17.771Z,73.66
2019-04-11T08:39:25.430Z,72.13
2019-04-11T08:42:55.282Z,70.32
2019-04-11T08:46:12.879Z,69.69
2019-04-11T08:49:52.160Z,68.59
2019-04-11T08:53:33.525Z,69.11
2019-04-11T08:56:39.068Z,68.89
2019-04-11T09:00:13.753Z,67.89
2019-04-11T09:03:32.154Z,64.94
2019-04-11T09:06:39.192Z,67.13
2019-04-11T09:10:01.912Z,67.07
2019-04-11T09:13:22.861Z,67.09
2019-04-11T09:16:44.328Z,65.65
2019-04-11T09:20:05.817Z,65.27
2019-04-11T09:23:11.986Z,66.15
2019-04-11T09:26:47.898Z,65.14
2019-04-11T09:29:56.577Z,66.39
2019-04-11T09:33:25.908Z,69.39
2019-04-11T09:36:49.652Z,69.78
2019-04-11T09:40:26.079Z,68.52
2019-04-11T09:43:31.887Z,66.23
2019-04-11T09:46:50.594Z,66.91
2019-04-11T09:49:56.363Z,68.12
2019-04-11T09:53:01.479Z,66.26
2019-04-11T09:56:39.842Z,65.89
2019-04-11T10:00:08.725Z,65.69
2019-04-11T10:03:25.970Z,64.93
2019-04-11T10:06:42.291Z,67.10
2019-04-11T10:10:15.097Z,66.39
2019-04-11T10:13:26.981Z,66.76
2019-04-11T10:16:48.751Z,65.65
2019-04-11T10:19:56.124Z,66.38
2019-04-11T10:23:25.399Z,66.11
2019-04-11T10:26:32.008Z,64.54
2019-04-11T10:29:54.808Z,64.97
2019-04-11T10:33:01.383Z,64.05
2019-04-11T10:36:19.036Z,64.10
2019-04-11T10:39:53.955Z,61.98
2019-04-11T10:42:58.134Z,62.83
2019-04-11T10:46:23.418Z,61.61
2019-04-11T10:49:55.379Z,61.54
2019-04-11T10:53:02.595Z,60.82
2019-04-11T10:56:24.557Z,60.61
2019-04-11T10:59:32.348Z,62.25
2019-04-11T11:02:50.889Z,62.37
2019-04-11T11:05:57.645Z,63.26
2019-04-11T11:09:10.468Z,65.03
2019-04-11T11:12:49.654Z,66.04
2019-04-11T11:15:58.609Z,66.25
2019-04-11T11:19:42.772Z,66.49
2019-04-11T11:22:42.000Z,67.85
2019-04-11T11:25:51.985Z,67.67
2019-04-11T11:29:15.251Z,67.80
2019-04-11T11:32:33.641Z,68.93
2019-04-11T11:35:49.997Z,69.21
2019-04-11T11:39:06.754Z,69.60
2019-04-11T11:42:28.806Z,69.99
2019-04-11T11:45:54.570Z,69.23
2019-04-11T11:49:07.969Z,69.61
2019-04-11T11:52:33.360Z,67.59
2019-04-11T11:55:38.292Z,68.48
2019-04-11T11:59:07.468Z,69.05
2019-04-11T12:02:17.368Z,68.45
2019-04-11T12:05:26.238Z,68.70
2019-04-11T12:08:46.616Z,69.09
2019-04-11T12:11:55.568Z,69.91
2019-04-11T12:15:22.067Z,69.82
2019-04-11T12:18:31.526Z,68.79
2019-04-11T12:21:36.672Z,68.62
2019-04-11T12:24:48.212Z,68.26
2019-04-11T12:28:00.635Z,68.34
2019-04-11T12:31:07.785Z,67.42
2019-04-11T12:34:30.312Z,67.72
2019-04-11T12:37:38.953Z,66.98
2019-04-11T12:41:00.683Z,66.65
2019-04-11T12:44:30.186Z,66.96
2019-04-11T12:47:39.532Z,67.21
2019-04-11T12:51:14.288Z,64.30
2019-04-11T12:54:24.424Z,64.00
2019-04-11T12:57:46.225Z,63.66
2019-04-11T13:01:12.323Z,64.27
2019-04-11T13:04:22.739Z,64.89
2019-04-11T13:07:44.454Z,66.85
2019-04-11T13:10:48.517Z,66.98
2019-04-11T13:14:01.733Z,64.85
2019-04-11T13:17:06.648Z,65.33
2019-04-11T13:20:43.035Z,65.78
2019-04-11T13:24:08.900Z,66.70
2019-04-11T13:27:17.770Z,65.04
2019-04-11T13:30:43.576Z,65.58
2019-04-11T13:33:47.461Z,66.66
2019-04-11T13:37:19.177Z,66.68
2019-04-11T13:41:00.500Z,66.21
2019-04-11T13:44:09.921Z,66.85
2019-04-11T13:47:31.871Z,66.18
2019-04-11T13:50:35.807Z,64.61
2019-04-11T13:53:57.494Z,64.64
2019-04-11T13:57:26.681Z,66.09
2019-04-11T14:00:48.613Z,66.41
2019-04-11T14:04:07.846Z,64.56
2019-04-11T14:07:12.858Z,65.79
2019-04-11T14:10:17.407Z,65.67
2019-04-11T14:13:34.655Z,66.25
2019-04-11T14:16:41.627Z,66.53
2019-04-11T14:19:56.928Z,67.60
2019-04-11T14:23:35.404Z,67.46
2019-04-11T14:26:41.505Z,67.49
2019-04-11T14:29:56.692Z,67.09
2019-04-11T14:33:01.018Z,69.04
2019-04-11T14:36:32.785Z,68.35
2019-04-11T14:39:30.528Z,68.59
2019-04-11T14:42:47.758Z,68.43
2019-04-11T14:46:22.627Z,70.04
2019-04-11T14:49:27.177Z,69.65
2019-04-11T14:52:50.129Z,70.18
2019-04-11T14:56:01.359Z,70.50
2019-04-11T14:59:24.722Z,70.29
2019-04-11T15:02:43.903Z,69.52
2019-04-11T15:05:51.724Z,69.51
2019-04-11T15:09:17.786Z,69.69
2019-04-11T15:12:24.010Z,68.82
2019-04-11T15:15:47.783Z,69.23
2019-04-11T15:18:56.085Z,68.10
2019-04-11T15:22:24.290Z,69.37
2019-04-11T15:25:44.550Z,69.70
2019-04-11T15:28:51.565Z,69.59
2019-04-11T15:32:26.243Z,69.76
2019-04-11T15:35:30.073Z,69.87
2019-04-11T15:38:43.121Z,70.56
2019-04-11T15:41:47.201Z,70.62
2019-04-11T15:44:58.627Z,70.89
2019-04-11T15:48:30.586Z,70.58
2019-04-11T15:51:36.238Z,69.27
2019-04-11T15:58:42.375Z,70.33
2019-04-11T16:02:10.378Z,70.20
2019-04-11T16:05:48.439Z,69.36
2019-04-11T16:08:54.800Z,67.99
2019-04-11T16:12:16.322Z,69.09
2019-04-11T16:15:19.857Z,67.65
2019-04-11T16:18:47.119Z,68.02
2019-04-11T16:22:03.658Z,68.30
2019-04-11T16:25:15.764Z,68.43
2019-04-11T16:28:38.192Z,67.29
2019-04-11T16:31:42.794Z,67.85
2019-04-11T16:34:54.375Z,68.23
2019-04-11T16:38:00.336Z,67.84
2019-04-11T16:41:23.790Z,67.53
2019-04-11T16:44:40.562Z,68.22
2019-04-11T16:48:15.679Z,68.87
2019-04-11T16:51:30.334Z,68.96
2019-04-11T16:54:25.078Z,69.06
2019-04-11T16:57:29.042Z,69.38
2019-04-11T17:00:32.830Z,69.92
2019-04-11T17:03:36.706Z,70.12
2019-04-11T17:07:05.625Z,70.52
2019-04-11T17:10:10.224Z,70.53
2019-04-11T17:13:14.470Z,69.48
2019-04-11T17:16:22.132Z,69.89
2019-04-11T17:19:25.978Z,70.56
2019-04-11T17:22:29.832Z,70.36
2019-04-11T17:25:33.819Z,71.47
2019-04-11T17:28:37.792Z,71.74
2019-04-11T17:31:42.337Z,72.25
2019-04-11T17:34:46.244Z,72.32
2019-04-11T17:37:50.110Z,72.99
2019-04-11T17:40:53.934Z,73.12
2019-04-11T17:43:57.785Z,73.41
2019-04-11T17:47:01.679Z,73.71
2019-04-11T17:50:05.798Z,73.17
2019-04-11T17:53:09.759Z,73.58
2019-04-11T17:56:13.658Z,72.14
2019-04-11T17:59:17.430Z,73.35
2019-04-11T18:02:21.304Z,72.88
2019-04-11T18:05:25.359Z,73.92
2019-04-11T18:08:29.266Z,74.51
2019-04-11T18:11:33.096Z,75.08
2019-04-11T18:14:37.056Z,75.31
2019-04-11T18:17:40.962Z,75.61
2019-04-11T18:20:44.807Z,75.55
2019-04-11T18:23:50.066Z,75.56
2019-04-11T18:26:54.239Z,75.69
2019-04-11T18:29:58.050Z,75.09
2019-04-11T18:33:01.869Z,74.91
2019-04-11T18:36:07.134Z,74.53
2019-04-11T18:39:11.124Z,73.81
2019-04-11T18:42:15.114Z,69.28
2019-04-11T18:45:19.068Z,64.04
2019-04-11T18:48:22.852Z,62.80
2019-04-11T18:51:26.762Z,61.55
2019-04-11T18:54:30.575Z,60.24
2019-04-11T18:57:34.474Z,59.23
2019-04-11T19:00:39.046Z,57.21
2019-04-11T19:03:43.079Z,57.71
2019-04-11T19:06:47.024Z,57.34
2019-04-11T19:09:50.883Z,58.03
2019-04-11T19:12:54.826Z,58.25
2019-04-11T19:15:58.992Z,58.82
2019-04-11T19:19:02.898Z,58.23
2019-04-11T19:22:07.127Z,58.34
2019-04-11T19:25:11.970Z,59.21
2019-04-11T19:28:16.419Z,59.31
2019-04-11T19:31:20.569Z,57.56
2019-04-11T19:34:24.481Z,58.15
2019-04-11T19:37:28.367Z,58.09
2019-04-11T19:40:32.247Z,58.27
2019-04-11T19:43:36.208Z,59.11
2019-04-11T19:46:41.023Z,59.68
2019-04-11T19:49:45.009Z,59.88
2019-04-11T19:52:49.057Z,58.82
2019-04-11T19:56:00.456Z,59.39
2019-04-11T19:59:04.558Z,59.42
2019-04-11T20:02:08.519Z,58.99
2019-04-11T20:05:12.550Z,59.11
2019-04-11T20:08:16.555Z,59.97
2019-04-11T20:11:20.601Z,60.21
2019-04-11T20:14:24.478Z,59.00
2019-04-11T20:17:28.525Z,59.77
2019-04-11T20:20:32.437Z,59.60
2019-04-11T20:23:36.469Z,58.86
2019-04-11T20:26:40.357Z,58.58
2019-04-11T20:29:44.242Z,58.95
2019-04-11T20:32:48.092Z,59.35
2019-04-11T20:35:52.048Z,58.87
2019-04-11T20:38:55.979Z,59.12
2019-04-11T20:41:59.818Z,58.83
2019-04-11T20:45:04.157Z,59.06
2019-04-11T20:48:08.165Z,58.71
2019-04-11T20:51:12.006Z,59.48
2019-04-11T20:54:15.944Z,59.68
2019-04-11T20:57:30.273Z,60.05
2019-04-11T21:00:34.223Z,60.35
2019-04-11T21:03:38.043Z,60.02
2019-04-11T21:06:41.948Z,60.65
2019-04-11T21:09:45.779Z,61.15
2019-04-11T21:12:49.741Z,60.82
2019-04-11T21:15:53.571Z,61.13
2019-04-11T21:18:57.388Z,61.21
2019-04-11T21:22:01.278Z,61.75
2019-04-11T21:25:05.403Z,61.86
2019-04-11T21:28:09.206Z,62.64
2019-04-11T21:31:13.044Z,61.89
2019-04-11T21:34:16.854Z,61.75
2019-04-11T21:37:20.679Z,62.28
2019-04-11T21:40:24.536Z,62.83
2019-04-11T21:43:28.345Z,63.24
2019-04-11T21:46:32.203Z,63.54
2019-04-11T21:49:37.106Z,63.73
2019-04-11T21:52:43.636Z,64.10
2019-04-11T21:55:47.683Z,64.00
2019-04-11T21:58:52.267Z,64.43
2019-04-11T22:01:56.171Z,64.61
2019-04-11T22:04:59.999Z,63.80
2019-04-11T22:08:04.043Z,65.25
2019-04-11T22:11:10.128Z,65.72
2019-04-11T22:14:13.484Z,66.12
2019-04-11T22:17:17.319Z,66.28
2019-04-11T22:20:21.126Z,67.76
2019-04-11T22:23:25.062Z,69.23
2019-04-11T22:26:28.929Z,70.15
2019-04-11T22:29:32.735Z,71.29
2019-04-11T22:32:36.536Z,72.86
2019-04-11T22:35:40.443Z,74.61
2019-04-11T22:38:44.268Z,76.33
2019-04-11T22:41:48.100Z,78.17
2019-04-11T22:44:51.933Z,78.42
2019-04-11T22:47:55.832Z,80.31
2019-04-11T22:50:59.651Z,82.20
2019-04-11T22:54:03.512Z,82.62
2019-04-11T22:57:07.419Z,83.61
2019-04-11T23:00:14.736Z,84.73
2019-04-11T23:03:30.293Z,84.89
2019-04-11T23:06:34.289Z,86.14
2019-04-11T23:09:38.107Z,85.56
2019-04-11T23:12:42.914Z,86.94
2019-04-11T23:15:47.483Z,86.88
2019-04-11T23:18:52.242Z,85.81
2019-04-11T23:21:56.063Z,87.86
2019-04-11T23:24:59.881Z,87.52
2019-04-11T23:28:03.840Z,87.31
2019-04-11T23:31:07.715Z,86.88
2019-04-11T23:34:11.541Z,87.68
2019-04-11T23:37:15.465Z,87.86
2019-04-11T23:40:20.972Z,87.51
2019-04-11T23:43:25.661Z,87.65
2019-04-11T23:46:29.474Z,88.51
2019-04-11T23:49:33.281Z,88.55
2019-04-11T23:52:37.108Z,88.68
2019-04-11T23:55:41.008Z,88.40
2019-04-11T23:58:44.823Z,88.08
